Time;durP1;ratioP1;P1;durP2;ratioP2;P2;SDS_P1;SDS_P2;PMS_P1;PMS_P2;Temp;Humidity;BMP_temperature;BMP_pressure;BME280_temperature;BME280_humidity;BME280_pressure;Samples;Min_cycle;Max_cycle;Signal;HPM_P1;HPM_P2
2022/06/15 00:01:55;;;;;;;7.47;2.75;;;;;;;23.95;48.14;98626.16;5012073;28;20022;-48
2022/06/15 00:04:21;;;;;;;8.77;2.90;;;;;;;24.02;47.90;98621.22;5012100;28;20442;-48
2022/06/15 00:06:47;;;;;;;7.38;2.83;;;;;;;24.00;46.92;98625.28;5012097;28;20488;-48
2022/06/15 00:09:12;;;;;;;15.80;4.55;;;;;;;23.94;47.29;98616.53;5012020;28;20033;-48
2022/06/15 00:11:41;;;;;;;4.85;2.53;;;;;;;23.89;47.63;98614.72;4978208;28;20034;-48
2022/06/15 00:14:13;;;;;;;9.10;2.58;;;;;;;23.89;47.66;98616.59;5012004;28;20026;-47
2022/06/15 00:16:40;;;;;;;7.55;2.60;;;;;;;23.90;47.73;98623.56;5012030;28;20109;-48
2022/06/15 00:19:05;;;;;;;9.05;2.63;;;;;;;23.82;47.50;98632.25;5011734;28;20041;-48
2022/06/15 00:21:32;;;;;;;7.38;2.67;;;;;;;23.66;47.31;98619.03;5011975;28;20034;-46
2022/06/15 00:23:58;;;;;;;6.05;3.50;;;;;;;23.56;47.96;98632.53;5011975;28;20058;-48
2022/06/15 00:26:25;;;;;;;11.98;2.75;;;;;;;23.63;47.91;98638.34;4994306;28;20104;-48
2022/06/15 00:28:51;;;;;;;10.48;2.50;;;;;;;23.60;47.57;98646.94;4994263;28;20165;-48
2022/06/15 00:31:18;;;;;;;6.07;2.30;;;;;;;23.57;47.77;98655.56;5011701;28;20026;-48
2022/06/15 00:33:44;;;;;;;9.82;2.70;;;;;;;23.46;47.63;98657.59;4994218;28;20030;-48
2022/06/15 00:36:13;;;;;;;10.70;3.17;;;;;;;23.36;48.10;98657.66;5011814;28;20021;-48
2022/06/15 00:38:42;;;;;;;13.18;4.93;;;;;;;23.32;48.24;98657.47;5011805;28;20148;-48
2022/06/15 00:41:11;;;;;;;16.50;4.25;;;;;;;23.36;48.30;98654.19;5011729;28;20029;-47
2022/06/15 00:43:44;;;;;;;12.57;2.83;;;;;;;23.34;48.72;98657.16;5011744;28;20088;-48
2022/06/15 00:46:27;;;;;;;6.78;2.97;;;;;;;23.24;49.16;98657.28;5011746;28;20030;-48
2022/06/15 00:49:12;;;;;;;12.27;2.78;;;;;;;23.24;49.33;98660.78;5012675;28;20062;-48
2022/06/15 00:51:39;;;;;;;;;;;;;;;23.24;48.42;98658.09;4998287;28;20519;-50
2022/06/15 00:54:07;;;;;;;6.35;2.63;;;;;;;23.09;48.44;98661.72;4997825;28;19968;-49
2022/06/15 00:56:35;;;;;;;9.05;2.70;;;;;;;23.02;48.57;98655.91;4997720;28;20053;-50
2022/06/15 00:59:07;;;;;;;6.75;2.70;;;;;;;22.92;48.49;98654.09;4997755;28;20018;-49
2022/06/15 01:01:34;;;;;;;8.93;2.67;;;;;;;22.92;48.81;98655.97;5015338;28;20029;-49
2022/06/15 01:04:02;;;;;;;12.45;2.95;;;;;;;22.86;49.03;98660.56;5015338;28;20022;-49
2022/06/15 01:06:48;;;;;;;7.13;2.65;;;;;;;22.84;48.66;98657.38;4997588;28;20483;-49
2022/06/15 01:09:24;;;;;;;6.97;2.50;;;;;;;22.92;48.71;98653.31;4997632;28;20041;-49
2022/06/15 01:12:01;;;;;;;4.65;2.40;;;;;;;22.89;48.48;98654.63;4997465;28;20026;-49
2022/06/15 01:14:49;;;;;;;8.55;2.80;;;;;;;22.85;49.00;98656.28;5015132;28;20503;-49
2022/06/15 01:17:56;;;;;;;9.32;3.05;;;;;;;22.68;49.02;98664.75;5014873;28;20455;-49
2022/06/15 01:20:36;;;;;;;9.02;2.72;;;;;;;22.46;49.73;98651.81;4938328;29;20035;-50
2022/06/15 01:23:40;;;;;;;7.90;3.00;;;;;;;22.37;50.08;98661.47;4954390;29;20122;-49
2022/06/15 01:27:00;;;;;;;7.25;2.88;;;;;;;22.34;49.90;98654.81;4945717;29;20526;-49
2022/06/15 01:30:13;;;;;;;11.43;2.85;;;;;;;22.47;49.35;98642.69;4936228;29;20045;-49
2022/06/15 01:32:49;;;;;;;14.25;4.53;;;;;;;22.76;49.39;98649.13;4954334;29;20102;-49
2022/06/15 01:35:33;;;;;;;15.05;3.35;;;;;;;23.02;48.46;98647.06;4954219;29;20039;-49
2022/06/15 01:38:20;;;;;;;10.77;3.78;;;;;;;23.24;47.79;98634.00;4954164;29;20039;-50
2022/06/15 01:41:24;;;;;;;6.78;2.40;;;;;;;23.30;47.73;98640.88;4954152;29;20089;-50
2022/06/15 01:44:08;;;;;;;8.00;2.47;;;;;;;23.23;47.19;98635.06;4953973;29;20520;-49
2022/06/15 01:46:39;;;;;;;6.45;3.30;;;;;;;23.18;48.20;98619.06;4954051;29;20035;-49
2022/06/15 01:49:08;;;;;;;9.93;2.45;;;;;;;23.49;47.76;98630.22;4954052;29;20561;-49
2022/06/15 01:51:40;;;;;;;7.35;2.22;;;;;;;23.86;46.23;98631.38;4996495;28;20037;-50
2022/06/15 01:54:11;;;;;;;9.40;2.50;;;;;;;24.01;45.74;98630.38;5014659;28;20053;-50
2022/06/15 01:56:42;;;;;;;13.57;3.80;;;;;;;24.05;46.23;98627.91;4996735;28;20069;-49
2022/06/15 01:59:42;;;;;;;8.25;3.35;;;;;;;24.08;46.13;98622.75;5014374;28;20501;-50
2022/06/15 02:02:14;;;;;;;11.25;4.18;;;;;;;24.27;45.44;98617.38;5013488;28;20022;-50
2022/06/15 02:04:53;;;;;;;9.95;2.72;;;;;;;24.65;44.63;98616.53;4996597;28;20068;-50
2022/06/15 02:07:45;;;;;;;12.32;4.63;;;;;;;25.04;43.91;98623.38;5014223;28;20113;-49
2022/06/15 02:10:19;;;;;;;13.52;5.25;;;;;;;25.29;42.86;98619.41;5014010;28;20092;-50
2022/06/15 02:12:59;;;;;;;11.88;4.65;;;;;;;25.55;42.13;98618.91;4996458;28;20212;-50
2022/06/15 02:15:28;;;;;;;19.73;5.93;;;;;;;25.80;41.36;98618.38;4996399;28;20038;-49
2022/06/15 02:17:59;;;;;;;16.63;4.45;;;;;;;26.09;40.40;98614.53;4996144;28;20045;-50
2022/06/15 02:20:29;;;;;;;12.73;4.97;;;;;;;26.29;39.73;98613.25;5013865;28;20032;-50
2022/06/15 02:23:00;;;;;;;23.10;6.25;;;;;;;26.48;39.54;98615.75;5014100;28;20030;-49
2022/06/15 02:25:31;;;;;;;12.00;4.60;;;;;;;26.65;38.65;98623.16;4996233;28;20116;-50
2022/06/15 02:27:57;;;;;;;11.50;2.97;;;;;;;26.83;38.17;98621.38;5013793;28;20037;-49
2022/06/15 02:30:26;;;;;;;16.95;4.20;;;;;;;27.00;37.71;98626.03;4995998;28;20339;-50
2022/06/15 02:32:53;;;;;;;12.25;5.00;;;;;;;27.25;37.36;98628.06;5013671;28;20022;-50
2022/06/15 02:35:20;;;;;;;14.55;4.10;;;;;;;27.41;37.07;98619.56;4996006;28;20075;-49
2022/06/15 02:37:48;;;;;;;15.40;4.80;;;;;;;27.48;36.29;98615.28;4995868;28;20030;-50
2022/06/15 02:40:17;;;;;;;18.55;5.68;;;;;;;27.53;36.32;98621.63;4995861;28;20054;-50
2022/06/15 02:42:45;;;;;;;16.38;4.82;;;;;;;27.39;36.21;98617.19;4995807;28;20507;-49
2022/06/15 02:45:19;;;;;;;14.57;4.80;;;;;;;27.35;36.30;98616.22;5013435;28;20022;-50
2022/06/15 02:47:46;;;;;;;19.42;6.72;;;;;;;27.34;36.34;98621.91;4995849;28;20488;-49
2022/06/15 02:50:17;;;;;;;11.55;3.50;;;;;;;27.32;35.92;98611.44;5013262;28;20076;-49
2022/06/15 02:52:48;;;;;;;17.00;6.78;;;;;;;27.25;36.44;98609.22;5013411;28;20026;-49
2022/06/15 02:55:17;;;;;;;16.73;5.28;;;;;;;27.37;36.16;98613.22;5013372;28;20026;-49
2022/06/15 02:57:52;;;;;;;16.67;6.72;;;;;;;27.51;36.13;98613.88;5013137;28;20030;-49
2022/06/15 03:00:22;;;;;;;20.60;8.70;;;;;;;27.60;36.25;98606.59;5013169;28;20022;-50
2022/06/15 03:02:48;;;;;;;21.70;8.52;;;;;;;27.75;35.55;98604.53;5013084;28;20021;-50
2022/06/15 03:05:14;;;;;;;9.45;3.42;;;;;;;27.90;35.25;98598.72;5013035;28;20108;-50
2022/06/15 03:07:39;;;;;;;21.70;7.75;;;;;;;27.94;34.63;98602.38;5011725;28;20077;-50
2022/06/15 03:10:06;;;;;;;22.17;11.88;;;;;;;27.99;35.54;98596.81;5012839;28;20070;-50
2022/06/15 03:12:32;;;;;;;21.52;6.35;;;;;;;28.02;34.87;98601.56;5012738;28;20427;-49
2022/06/15 03:14:58;;;;;;;9.75;4.53;;;;;;;28.05;34.43;98605.53;5012930;28;20045;-50
2022/06/15 03:17:23;;;;;;;11.00;5.95;;;;;;;27.95;34.88;98601.28;4994952;28;20499;-50
2022/06/15 03:19:49;;;;;;;15.75;6.53;;;;;;;27.88;34.71;98609.81;5012858;28;20033;-49
2022/06/15 03:22:17;;;;;;;14.27;6.10;;;;;;;27.73;34.86;98601.38;5011464;28;20022;-49
2022/06/15 03:24:43;;;;;;;26.67;15.77;;;;;;;27.67;35.31;98608.84;5012749;28;20030;-49
2022/06/15 03:27:09;;;;;;;11.02;4.95;;;;;;;27.60;35.55;98595.81;5012638;28;20029;-49
2022/06/15 03:29:36;;;;;;;10.68;2.92;;;;;;;27.63;35.39;98599.78;5012517;28;20033;-49
2022/06/15 03:32:03;;;;;;;26.38;14.63;;;;;;;27.59;35.42;98588.84;5012553;28;20026;-49
2022/06/15 03:34:28;;;;;;;14.35;7.30;;;;;;;27.65;35.37;98592.97;5012804;28;20400;-49
2022/06/15 03:36:54;;;;;;;29.65;12.32;;;;;;;27.64;35.45;98596.75;5012429;28;20052;-50
2022/06/15 03:39:20;;;;;;;14.80;6.35;;;;;;;27.60;35.53;98586.94;5012515;28;20030;-49
2022/06/15 03:41:45;;;;;;;31.90;13.85;;;;;;;27.57;36.13;98590.25;4994710;28;20398;-50
2022/06/15 03:44:11;;;;;;;35.03;17.83;;;;;;;27.63;35.50;98584.41;4994664;28;20087;-50
2022/06/15 03:46:37;;;;;;;27.02;9.73;;;;;;;27.72;35.15;98576.31;5012330;28;20018;-49
2022/06/15 03:49:03;;;;;;;25.63;13.63;;;;;;;27.72;35.44;98575.53;5012378;28;20104;-48
2022/06/15 03:51:29;;;;;;;29.55;12.13;;;;;;;27.82;35.12;98577.91;4994532;28;20113;-48
2022/06/15 03:53:54;;;;;;;29.50;15.02;;;;;;;27.88;35.21;98579.34;5012301;28;20522;-48
2022/06/15 03:56:20;;;;;;;10.45;2.40;;;;;;;27.94;34.40;98575.38;4994624;28;20129;-49
2022/06/15 03:58:46;;;;;;;18.83;10.20;;;;;;;27.73;34.95;98571.69;4994498;28;20036;-49
2022/06/15 04:01:12;;;;;;;13.32;6.38;;;;;;;27.57;35.35;98577.56;5012199;28;20026;-49
2022/06/15 04:03:38;;;;;;;27.30;12.23;;;;;;;27.50;35.61;98577.22;4994541;28;20026;-49
2022/06/15 04:06:04;;;;;;;13.50;3.85;;;;;;;27.53;35.71;98578.50;4994447;28;20403;-50
2022/06/15 04:08:42;;;;;;;18.80;8.55;;;;;;;27.45;35.33;98572.78;5012138;28;20025;-50
2022/06/15 04:11:58;;;;;;;35.15;15.23;;;;;;;27.36;36.07;98577.38;5012029;28;20061;-49
2022/06/15 04:14:04;;;;;;;19.45;8.32;;;;;;;27.39;35.92;98573.28;5011830;28;20038;-49
2022/06/15 04:16:30;;;;;;;21.98;7.10;;;;;;;27.42;36.56;98572.63;5012014;28;20049;-50
2022/06/15 04:19:02;;;;;;;19.60;7.65;;;;;;;27.61;36.48;98572.34;5011878;28;20056;-49
2022/06/15 04:21:28;;;;;;;24.27;13.93;;;;;;;27.78;35.63;98566.94;5012043;28;20029;-49
2022/06/15 04:23:54;;;;;;;12.77;6.07;;;;;;;27.84;35.68;98579.16;5012997;28;20057;-49
2022/06/15 04:26:20;;;;;;;11.90;3.80;;;;;;;28.03;34.94;98565.41;5016007;28;20057;-49
2022/06/15 04:28:46;;;;;;;18.50;7.13;;;;;;;28.34;34.42;98572.50;5014662;28;20026;-49
2022/06/15 04:31:12;;;;;;;12.38;5.45;;;;;;;28.63;33.70;98576.41;4998162;28;20030;-49
2022/06/15 04:33:38;;;;;;;25.42;10.93;;;;;;;28.86;33.74;98574.28;5015876;28;20539;-49
2022/06/15 04:36:04;;;;;;;18.85;5.45;;;;;;;29.07;33.37;98574.34;4998205;28;20072;-49
2022/06/15 04:38:30;;;;;;;26.70;9.55;;;;;;;29.27;32.97;98581.72;5015770;28;20384;-49
2022/06/15 04:40:55;;;;;;;18.58;8.07;;;;;;;29.45;32.95;98574.28;5015736;28;20033;-49
2022/06/15 04:43:22;;;;;;;17.85;6.93;;;;;;;29.86;32.36;98571.97;5015743;28;20033;-50
2022/06/15 04:45:47;;;;;;;18.90;6.05;;;;;;;30.28;31.94;98577.31;4997992;28;20033;-49
2022/06/15 04:48:14;;;;;;;24.50;10.30;;;;;;;30.41;31.59;98570.84;5015627;28;20051;-50
2022/06/15 04:50:39;;;;;;;9.43;2.60;;;;;;;30.48;30.66;98575.69;5015432;28;20133;-49
2022/06/15 04:53:05;;;;;;;20.77;7.95;;;;;;;30.73;31.11;98573.84;5015527;28;20123;-50
2022/06/15 04:55:32;;;;;;;22.13;11.73;;;;;;;31.31;30.35;98573.78;5015470;28;20022;-49
2022/06/15 04:57:59;;;;;;;23.27;9.63;;;;;;;32.01;29.99;98572.72;4997835;28;20033;-50
2022/06/15 05:00:28;;;;;;;8.98;2.65;;;;;;;32.43;29.60;98583.94;5015378;28;20025;-49
2022/06/15 05:02:54;;;;;;;6.38;2.28;;;;;;;32.34;29.95;98577.88;5015326;28;20400;-50
2022/06/15 05:05:20;;;;;;;13.02;2.67;;;;;;;31.84;30.76;98581.94;5015334;28;20029;-50
2022/06/15 05:07:46;;;;;;;19.48;5.20;;;;;;;31.18;31.99;98588.47;5015538;28;20379;-49
2022/06/15 05:10:18;;;;;;;12.13;2.50;;;;;;;30.53;32.88;98585.56;5015009;28;20029;-49
2022/06/15 05:12:46;;;;;;;11.32;2.95;;;;;;;30.03;33.58;98588.06;5015170;28;20026;-49
2022/06/15 05:15:13;;;;;;;10.30;2.97;;;;;;;29.74;34.25;98591.66;5015125;28;20187;-48
2022/06/15 05:17:44;;;;;;;9.30;2.50;;;;;;;29.52;34.44;98598.13;5014836;28;20551;-49
2022/06/15 05:20:11;;;;;;;29.67;3.78;;;;;;;29.61;34.36;98596.16;5015077;28;20067;-49
2022/06/15 05:22:37;;;;;;;33.88;4.05;;;;;;;29.98;34.45;98604.50;5014941;28;20034;-49
2022/06/15 05:25:08;;;;;;;29.17;3.75;;;;;;;30.60;33.78;98604.75;5014925;28;20113;-48
2022/06/15 05:27:34;;;;;;;33.47;4.00;;;;;;;31.66;32.27;98600.41;5014960;28;20488;-47
2022/06/15 05:30:01;;;;;;;72.15;6.97;;;;;;;32.40;30.93;98606.38;5014747;28;20026;-48
2022/06/15 05:32:26;;;;;;;43.10;8.50;;;;;;;33.02;30.30;98604.09;5014785;28;20026;-48
2022/06/15 05:34:55;;;;;;;32.35;5.93;;;;;;;33.61;29.47;98599.63;4996825;28;20067;-48
2022/06/15 05:37:22;;;;;;;41.40;11.05;;;;;;;33.93;29.21;98610.41;5014599;28;20030;-48
2022/06/15 05:39:48;;;;;;;30.20;6.13;;;;;;;33.82;29.22;98612.09;5014680;28;20072;-49
2022/06/15 05:42:15;;;;;;;34.20;4.70;;;;;;;33.80;29.45;98620.63;5014508;28;20104;-48
2022/06/15 05:44:45;;;;;;;47.35;5.05;;;;;;;33.53;29.48;98621.59;5014610;28;20022;-48
2022/06/15 05:47:11;;;;;;;17.00;4.20;;;;;;;33.26;29.91;98636.88;5014772;28;20049;-48
2022/06/15 05:49:37;;;;;;;19.30;3.63;;;;;;;33.24;30.56;98626.34;5014422;28;20451;-48
2022/06/15 05:52:03;;;;;;;33.13;6.05;;;;;;;33.02;31.22;98630.47;5014439;28;20034;-49
2022/06/15 05:54:29;;;;;;;29.60;4.25;;;;;;;33.02;31.23;98641.34;5014308;28;20037;-48
2022/06/15 05:56:55;;;;;;;26.88;4.75;;;;;;;33.04;31.96;98644.50;5014400;28;20466;-48
2022/06/15 05:59:20;;;;;;;24.20;4.10;;;;;;;33.12;31.68;98640.88;5014275;28;20560;-48
2022/06/15 06:01:46;;;;;;;22.42;3.97;;;;;;;33.07;31.51;98646.53;4996626;28;20029;-48
2022/06/15 06:04:15;;;;;;;63.65;50.70;;;;;;;33.05;31.59;98640.66;5014177;28;20097;-47
2022/06/15 06:06:41;;;;;;;224.80;203.13;;;;;;;32.92;32.13;98641.88;4996522;28;20451;-48
2022/06/15 06:09:07;;;;;;;111.38;77.75;;;;;;;33.08;31.98;98639.16;5014047;28;20018;-50
2022/06/15 06:11:37;;;;;;;50.97;29.25;;;;;;;33.29;31.00;98644.34;5014012;28;20029;-50
2022/06/15 06:14:03;;;;;;;36.22;13.90;;;;;;;32.79;31.68;98646.59;4996455;28;20096;-50
2022/06/15 06:16:29;;;;;;;35.97;12.75;;;;;;;32.49;32.13;98649.69;5013980;28;20504;-49
2022/06/15 06:18:55;;;;;;;31.30;11.32;;;;;;;32.38;31.91;98645.91;5013604;28;20104;-49
2022/06/15 06:21:21;;;;;;;20.88;9.25;;;;;;;32.38;32.01;98659.47;5013890;28;20045;-49
2022/06/15 06:23:48;;;;;;;34.13;12.95;;;;;;;32.07;32.00;98657.44;5013891;28;20099;-49
2022/06/15 06:26:29;;;;;;;40.25;12.88;;;;;;;31.67;33.18;98655.44;4996136;28;20033;-49
2022/06/15 06:28:56;;;;;;;40.92;11.00;;;;;;;31.42;33.86;98666.28;5013837;28;20025;-49
2022/06/15 06:31:22;;;;;;;54.42;10.50;;;;;;;31.20;34.30;98670.25;5013758;28;20148;-48
2022/06/15 06:33:50;;;;;;;41.15;6.57;;;;;;;31.15;34.59;98679.41;5013640;28;20024;-48
2022/06/15 06:36:21;;;;;;;38.70;8.18;;;;;;;31.21;34.74;98677.22;4995930;28;20037;-48
2022/06/15 06:38:47;;;;;;;36.63;7.20;;;;;;;31.28;34.86;98669.34;4995979;28;20045;-48
2022/06/15 06:41:20;;;;;;;38.88;11.32;;;;;;;31.12;35.56;98663.78;5013774;28;20026;-48
2022/06/15 06:43:46;;;;;;;29.20;4.60;;;;;;;31.00;35.05;98667.28;5013720;28;20038;-48
2022/06/15 06:46:12;;;;;;;32.65;5.78;;;;;;;31.15;34.56;98670.44;5012833;28;20014;-49
2022/06/15 06:48:38;;;;;;;19.92;4.07;;;;;;;31.27;34.17;98675.91;5013264;28;20061;-49
2022/06/15 06:51:04;;;;;;;32.13;6.88;;;;;;;31.46;34.58;98672.66;5013268;28;20045;-47
2022/06/15 06:53:35;;;;;;;31.58;5.35;;;;;;;31.72;34.50;98672.28;4995694;28;20033;-49
2022/06/15 06:56:03;;;;;;;25.20;4.72;;;;;;;31.90;33.31;98693.75;5013257;28;20021;-48
2022/06/15 06:58:31;;;;;;;27.60;4.40;;;;;;;32.00;33.75;98709.59;5013193;28;20398;-48
2022/06/15 07:00:57;;;;;;;70.38;8.50;;;;;;;32.34;34.71;98716.41;5013091;28;20025;-48
2022/06/15 07:03:23;;;;;;;20.73;4.38;;;;;;;32.47;35.10;98714.44;5013119;28;20026;-49
2022/06/15 07:05:49;;;;;;;47.97;5.20;;;;;;;32.41;35.15;98722.03;5013044;28;20076;-48
2022/06/15 07:08:15;;;;;;;101.53;10.73;;;;;;;32.29;35.11;98710.44;5012989;28;20034;-48
2022/06/15 07:10:41;;;;;;;29.35;5.70;;;;;;;31.90;34.94;98691.84;5012896;28;20022;-49
2022/06/15 07:13:10;;;;;;;9.35;3.15;;;;;;;31.35;34.90;98706.75;5012983;28;20076;-48
2022/06/15 07:15:36;;;;;;;25.67;4.45;;;;;;;30.83;36.94;98706.19;5012833;28;20398;-48
2022/06/15 07:18:05;;;;;;;22.83;3.92;;;;;;;30.40;37.10;98707.34;5012811;28;20397;-47
2022/06/15 07:20:31;;;;;;;62.60;7.45;;;;;;;30.32;37.95;98729.09;5012786;28;20034;-48
2022/06/15 07:22:58;;;;;;;16.88;4.32;;;;;;;30.52;38.60;98727.50;5012800;28;20018;-48
2022/06/15 07:25:24;;;;;;;25.70;4.47;;;;;;;30.78;38.10;98733.47;5012672;28;20037;-50
2022/06/15 07:27:50;;;;;;;41.67;6.07;;;;;;;30.98;37.56;98733.81;5012703;28;20018;-49
2022/06/15 07:30:20;;;;;;;42.83;5.00;;;;;;;31.34;36.74;98726.88;5012535;28;20514;-50
2022/06/15 07:32:46;;;;;;;17.52;3.67;;;;;;;31.87;34.38;98727.00;5012654;28;20065;-50
2022/06/15 07:35:25;;;;;;;29.85;4.25;;;;;;;32.50;32.31;98702.91;4994913;28;20072;-48
2022/06/15 07:37:52;;;;;;;29.67;4.20;;;;;;;32.78;31.43;98688.50;5012564;28;20030;-48
2022/06/15 07:40:22;;;;;;;9.80;2.40;;;;;;;32.73;29.96;98675.97;4994928;28;20026;-49
2022/06/15 07:42:50;;;;;;;8.43;2.42;;;;;;;32.72;30.02;98684.47;4994912;28;20030;-49
2022/06/15 07:45:19;;;;;;;156.63;141.30;;;;;;;32.63;29.85;98687.34;5012432;28;20049;-51
2022/06/15 07:50:29;;;;;;;36.60;21.65;;;;;;;32.31;31.11;98683.72;5012371;28;20033;-50
2022/06/15 07:52:55;;;;;;;38.88;19.75;;;;;;;32.40;31.26;98678.94;4994677;28;20038;-50
2022/06/15 07:55:30;;;;;;;144.18;32.42;;;;;;;32.36;30.10;98686.19;5012283;28;20057;-49
2022/06/15 07:57:56;;;;;;;95.55;25.27;;;;;;;31.95;30.90;98690.78;5012252;28;20061;-49
2022/06/15 08:00:24;;;;;;;56.47;16.60;;;;;;;31.77;30.89;98687.53;5012168;28;20030;-50
2022/06/15 08:02:51;;;;;;;25.02;7.85;;;;;;;31.54;30.92;98693.44;5012186;28;20038;-51
2022/06/15 08:05:18;;;;;;;25.42;6.82;;;;;;;31.22;36.04;98684.25;4994519;28;20028;-48
2022/06/15 08:07:45;;;;;;;16.80;5.95;;;;;;;30.97;32.72;98686.94;4978441;28;20133;-48
2022/06/15 08:10:14;;;;;;;22.05;5.63;;;;;;;30.81;34.25;98692.19;5012047;28;20022;-49
2022/06/15 08:12:42;;;;;;;27.77;5.25;;;;;;;30.80;33.66;98689.78;4994400;28;20113;-48
2022/06/15 08:15:09;;;;;;;19.95;4.45;;;;;;;30.82;32.30;98682.91;5012009;28;20022;-48
2022/06/15 08:17:40;;;;;;;21.40;4.88;;;;;;;30.70;33.51;98688.28;4993990;28;21171;-48
2022/06/15 08:20:06;;;;;;;27.05;5.45;;;;;;;30.89;32.36;98692.44;5011226;28;20034;-48
2022/06/15 08:22:34;;;;;;;12.55;2.83;;;;;;;30.89;32.18;98679.69;5011167;28;20036;-48
2022/06/15 08:25:01;;;;;;;19.23;4.32;;;;;;;31.09;32.19;98691.59;5011188;28;20454;-50
2022/06/15 08:27:27;;;;;;;13.75;3.75;;;;;;;31.50;31.60;98700.69;5011069;28;20499;-48
2022/06/15 08:29:52;;;;;;;13.32;2.97;;;;;;;31.84;30.16;98709.47;5011054;28;20396;-50
2022/06/15 08:32:19;;;;;;;10.98;2.75;;;;;;;31.99;29.97;98706.06;4993411;28;20064;-48
2022/06/15 08:34:45;;;;;;;14.48;3.28;;;;;;;32.18;29.76;98699.28;5011042;28;20477;-48
2022/06/15 08:37:16;;;;;;;12.80;3.25;;;;;;;32.58;28.80;98682.19;5010870;28;20030;-48
2022/06/15 08:39:41;;;;;;;21.65;11.52;;;;;;;32.90;28.38;98683.00;5010949;28;20034;-48
2022/06/15 08:42:34;;;;;;;17.45;8.07;;;;;;;32.74;27.88;98680.28;4993277;28;20149;-50
2022/06/15 08:45:12;;;;;;;20.83;6.72;;;;;;;32.49;28.74;98679.56;5010924;28;20069;-49
2022/06/15 08:48:07;;;;;;;15.13;3.05;;;;;;;32.34;29.21;98655.88;4993324;28;20038;-49
2022/06/15 08:50:56;;;;;;;12.90;3.13;;;;;;;32.24;29.35;98666.09;5010874;28;20064;-50
2022/06/15 08:54:06;;;;;;;8.57;2.88;;;;;;;31.99;29.52;98657.19;4993199;28;20118;-49
2022/06/15 08:56:43;;;;;;;13.27;2.72;;;;;;;31.76;30.11;98637.13;4931161;29;20517;-49
2022/06/15 08:59:44;;;;;;;23.35;3.78;;;;;;;31.54;30.57;98603.13;4931169;29;20050;-50
2022/06/15 09:02:23;;;;;;;16.63;3.83;;;;;;;31.56;30.50;98611.72;4915270;29;20118;-49
2022/06/15 09:05:35;;;;;;;12.57;2.80;;;;;;;31.73;30.31;98640.50;4931124;29;20044;-49
2022/06/15 09:08:23;;;;;;;10.13;2.75;;;;;;;31.82;29.92;98622.19;4931113;29;20074;-48
2022/06/15 09:11:30;;;;;;;12.55;3.00;;;;;;;31.71;30.15;98616.44;4932975;29;20119;-48
2022/06/15 09:14:30;;;;;;;15.80;3.13;;;;;;;31.71;29.93;98623.78;4896449;29;20029;-48
2022/06/15 09:20:03;;;;;;;10.55;2.30;;;;;;;31.90;29.98;98669.34;5109581;27;20388;-51
2022/06/15 09:22:35;;;;;;;12.80;2.58;;;;;;;31.61;30.59;98685.53;5109723;28;20043;-48
2022/06/15 09:25:13;;;;;;;10.35;2.47;;;;;;;31.62;30.68;98667.34;5108378;28;20036;-47
2022/06/15 09:27:46;;;;;;;7.50;2.03;;;;;;;32.02;30.08;98667.41;5109651;28;20035;-48
2022/06/15 09:30:27;;;;;;;7.60;2.22;;;;;;;32.59;28.89;98692.69;5108207;28;20115;-48
2022/06/15 09:33:21;;;;;;;9.90;3.03;;;;;;;33.00;28.58;98678.97;5109480;28;20060;-48
2022/06/15 09:36:02;;;;;;;17.75;3.10;;;;;;;33.17;28.59;98689.53;5107669;28;20047;-49
2022/06/15 09:38:32;;;;;;;20.30;4.03;;;;;;;33.29;28.16;98699.53;5109437;28;20107;-49
2022/06/15 09:41:06;;;;;;;13.30;3.20;;;;;;;33.29;28.34;98688.66;5109331;28;20035;-49
2022/06/15 09:43:57;;;;;;;15.52;2.60;;;;;;;33.39;28.16;98695.50;5109396;28;20024;-49
2022/06/15 09:46:38;;;;;;;11.63;3.13;;;;;;;33.72;27.69;98703.28;5109298;28;20020;-49
2022/06/15 09:49:42;;;;;;;13.13;2.05;;;;;;;33.97;26.73;98752.88;5109301;28;20024;-48
2022/06/15 09:52:15;;;;;;;17.10;2.97;;;;;;;34.07;26.27;98748.00;5103287;28;20066;-49
2022/06/15 09:55:16;;;;;;;8.02;2.53;;;;;;;34.20;26.35;98761.16;5109143;28;20028;-49
2022/06/15 09:57:43;;;;;;;14.50;3.45;;;;;;;34.13;26.54;98760.19;5085181;28;20042;-49
2022/06/15 10:00:14;;;;;;;9.30;2.10;;;;;;;34.09;25.87;98751.16;5107667;28;20053;-49
2022/06/15 10:02:44;;;;;;;14.02;1.88;;;;;;;33.76;25.27;98736.81;5109000;28;20115;-49
2022/06/15 10:05:23;;;;;;;14.40;2.42;;;;;;;33.30;26.34;98739.19;5109179;28;20035;-49
2022/06/15 10:07:52;;;;;;;12.38;3.03;;;;;;;32.95;26.60;98741.78;5108926;28;20031;-49
2022/06/15 10:10:26;;;;;;;17.00;3.10;;;;;;;32.61;27.43;98727.66;5108683;28;20028;-48
2022/06/15 10:13:02;;;;;;;;;;;;;;;32.50;27.23;98721.09;5109187;28;20035;-49
2022/06/15 10:15:36;;;;;;;5.22;1.80;;;;;;;32.26;28.27;98692.91;5108649;28;19969;-47
2022/06/15 10:18:20;;;;;;;20.08;2.65;;;;;;;32.30;28.29;98682.13;5108395;28;20040;-48
2022/06/15 10:21:04;;;;;;;;;;;;;;;32.33;28.34;98684.94;5108997;28;20035;-48
2022/06/15 10:24:00;;;;;;;16.35;3.22;;;;;;;32.15;29.18;98675.50;5108556;28;20389;-47
2022/06/15 10:26:44;;;;;;;18.83;2.42;;;;;;;32.16;29.52;98671.66;5107167;28;20101;-49
2022/06/15 10:29:15;;;;;;;17.98;2.78;;;;;;;32.64;28.43;98659.03;5107221;28;20035;-49
2022/06/15 10:32:01;;;;;;;6.85;2.03;;;;;;;32.40;29.45;98651.78;5094600;28;20085;-49
2022/06/15 10:34:46;;;;;;;23.25;3.30;;;;;;;32.35;29.47;98654.72;5094848;28;20020;-49
2022/06/15 10:37:25;;;;;;;13.38;2.88;;;;;;;32.25;29.55;98648.63;5094670;28;20039;-48
2022/06/15 10:39:55;;;;;;;10.25;2.13;;;;;;;31.95;30.13;98661.72;5094595;28;20031;-49
2022/06/15 10:42:42;;;;;;;9.88;2.60;;;;;;;31.50;31.39;98641.00;5094487;28;20024;-49
2022/06/15 10:45:19;;;;;;;16.70;2.78;;;;;;;31.33;31.53;98658.28;5093281;28;20024;-49
2022/06/15 10:48:06;;;;;;;12.93;2.97;;;;;;;31.12;37.27;98652.94;5094595;28;20036;-47
2022/06/15 10:50:32;;;;;;;12.30;3.10;;;;;;;30.27;39.79;98660.47;5094447;28;20024;-47
2022/06/15 10:53:06;;;;;;;7.78;3.20;;;;;;;29.36;41.04;98672.78;5094423;28;20032;-47
2022/06/15 11:04:20;;;;;;;8.98;2.47;;;;;;;33.40;37.35;98670.69;5094245;28;20035;-49
2022/06/15 11:06:58;;;;;;;9.65;2.72;;;;;;;35.53;33.65;98675.56;5092846;28;20035;-48
2022/06/15 11:09:32;;;;;;;13.68;2.58;;;;;;;37.14;30.02;98676.72;5092826;28;20512;-49
2022/06/15 11:12:01;;;;;;;15.38;3.65;;;;;;;38.00;29.29;98669.06;5094388;28;20428;-50
2022/06/15 11:14:43;;;;;;;13.73;2.75;;;;;;;38.93;25.64;98682.28;5094070;28;20024;-50
2022/06/15 11:20:59;;;;;;;10.85;3.33;;;;;;;41.72;21.64;98676.69;5094178;28;20166;-52
2022/06/15 11:23:49;;;;;;;9.43;2.35;;;;;;;41.71;19.62;98694.41;5069326;28;20089;-52
2022/06/15 11:29:17;;;;;;;6.40;2.42;;;;;;;39.01;21.66;98724.25;5094058;28;20661;-52
2022/06/15 11:31:43;;;;;;;9.50;2.35;;;;;;;38.10;22.48;98722.38;5093737;28;20024;-50
2022/06/15 11:34:14;;;;;;;10.82;1.95;;;;;;;37.43;23.44;98720.72;5093662;28;20048;-48
2022/06/15 11:36:59;;;;;;;13.20;2.42;;;;;;;36.94;23.95;98734.38;5092357;28;20035;-48
2022/06/15 11:39:39;;;;;;;435.00;397.83;;;;;;;36.42;25.03;98749.00;5093473;28;20393;-47
2022/06/15 11:42:10;;;;;;;63.22;52.78;;;;;;;35.85;26.01;98749.00;5091147;28;20030;-49
2022/06/15 11:44:39;;;;;;;19.48;4.97;;;;;;;35.51;25.88;98735.22;5092187;28;20062;-50
2022/06/15 11:47:33;;;;;;;10.73;2.90;;;;;;;35.00;26.95;98728.09;5092006;28;20370;-47
2022/06/15 11:50:14;;;;;;;17.40;4.20;;;;;;;34.70;27.47;98738.84;5092023;28;20401;-49
2022/06/15 11:53:01;;;;;;;15.63;3.65;;;;;;;34.48;28.41;98724.00;5091994;28;20397;-48
2022/06/15 11:55:41;;;;;;;38.70;4.93;;;;;;;34.38;28.38;98722.63;5093463;28;20456;-50
2022/06/15 11:58:33;;;;;;;16.52;3.95;;;;;;;34.67;28.17;98725.94;5091772;28;20028;-49
2022/06/15 12:01:36;;;;;;;16.60;3.80;;;;;;;34.72;27.96;98723.69;5093127;28;20107;-49
2022/06/15 12:04:17;;;;;;;10.90;3.55;;;;;;;34.87;27.72;98705.66;5093327;28;20020;-48
2022/06/15 12:07:11;;;;;;;9.02;2.30;;;;;;;34.90;27.91;98706.88;5093071;28;20032;-49
2022/06/15 12:10:00;;;;;;;25.27;3.20;;;;;;;34.61;28.60;98709.03;5093300;28;20055;-48
2022/06/15 12:12:38;;;;;;;39.33;5.00;;;;;;;34.38;29.31;98698.09;5092893;28;20097;-49
2022/06/15 12:15:17;;;;;;;18.83;3.63;;;;;;;34.22;29.36;98687.25;5092874;28;20430;-49